sim
Sign-in with your pilot id or email,
or register
Callsign
Passwort

Schedule Details

Flight Number: OEO2146
Departure: Leipzig Halle Airport (EDDP) at 05:55
Arrival: Thessaloniki International Airport (LGTS) at 08:20

Weather Information
Getting current METAR information for EDDP 211120Z 25015KT CAVOK 10/04 Q1025 NOSIG
Getting current METAR information for LGTS 211120Z 33019KT CAVOK 16/M01 Q1023 NOSIG

Schedule Frequency

Route Map